Kantata — LYBD — position and weather

sailwx.info

Track history (hours):
 
Tides and Currents Weather Stations Pressure Air Temp Water Temp Dewpoint Dewpoint Depression Visibility Wind Speed Wind Dir Waves Ship Positions

Kantata

Last reported at 2017-Oct-18 07:19 UTC. Time now 2017-Oct-20 10:56 UTC.
Position N 38°09' E 002°16'.

Length 141 m; draft 8.4 m.

Type: Cargo ship. MMSI: 277549000.

Date/timePositionNaut miles runAvg speedWind from/ knotsBaromVisibWave heightAir tempDewpointWater temp
2017-Oct-18 07:19N 38°09' E 002°16'411.8
2017-Oct-18 06:58N 38°07' E 002°21'1511.8
2017-Oct-18 05:42N 37°60' E 002°37'412.1
2017-Oct-18 05:20N 37°57' E 002°42'2212.0
2017-Oct-18 03:29N 37°46' E 003°06'611.8
2017-Oct-18 03:01N 37°43' E 003°12'2111.4
2017-Oct-18 01:09N 37°32' E 003°35'  
2017-Oct-13 08:14N 41°13' E 002°07'2 9.9
2017-Oct-13 08:00N 41°12' E 002°05'5 9.9
2017-Oct-13 07:30N 41°08' E 002°00'5 9.9
2017-Oct-13 07:00N 41°05' E 001°55'5 9.9
2017-Oct-13 06:30N 41°01' E 001°51'5 9.8
2017-Oct-13 06:00N 40°58' E 001°46'5 9.9
2017-Oct-13 05:30N 40°54' E 001°41'  
Track history (hours):
 
Tides and Currents Weather Stations Pressure Air Temp Water Temp Dewpoint Dewpoint Depression Visibility Wind Speed Wind Dir Waves Ship Positions

Kantata

Last reported at 2017-Oct-18 07:19 UTC. Time now 2017-Oct-20 10:56 UTC.
Position N 38°09' E 002°16'.

Length 141 m; draft 8.4 m.

Type: Cargo ship. MMSI: 277549000.

Date/timePositionNaut miles runAvg speedWind from/ knotsBaromVisibWave heightAir tempDewpointWater temp
2017-Oct-18 07:19N 38°09' E 002°16'411.8
2017-Oct-18 06:58N 38°07' E 002°21'1511.8
2017-Oct-18 05:42N 37°60' E 002°37'412.1
2017-Oct-18 05:20N 37°57' E 002°42'2212.0
2017-Oct-18 03:29N 37°46' E 003°06'611.8
2017-Oct-18 03:01N 37°43' E 003°12'2111.4
2017-Oct-18 01:09N 37°32' E 003°35'  
2017-Oct-13 08:14N 41°13' E 002°07'2 9.9
2017-Oct-13 08:00N 41°12' E 002°05'5 9.9
2017-Oct-13 07:30N 41°08' E 002°00'5 9.9
2017-Oct-13 07:00N 41°05' E 001°55'5 9.9
2017-Oct-13 06:30N 41°01' E 001°51'5 9.8
2017-Oct-13 06:00N 40°58' E 001°46'5 9.9
2017-Oct-13 05:30N 40°54' E 001°41'  

Dump ship's entire track history